DESVRES (62) - B

Date : 25/04/2015
Distance : 4,700 km

Place Nom Licence Catégorie Club Temps min/km CN à J-60 Points Différence Nouveau CN
1 DESRUMAUX Marie 14227 D35 5906NO 0:49:30 10'31 5380 5443 +63 5512
2 LEMAIRE Cecilia 8952 D21 5907NO 0:49:31 10'32 4573 5441 +868 5133
3 LOTERIE Laurine 7045 D21 5907NO 0:49:34 10'32 5561 5435 -126 5467
4 DESRUMAUX Celine 15795 D40 5906NO 0:50:20 10'42 4983 5353 +370 5082
5 DECARPIGNY Gwladys 6995 D35 5907NO 0:51:41 10'59 3919 5213 +1294 4209
6 FLORENT Roxane 26927 D20 5907NO 0:52:26 11'09 4623 5138 +515 4851
7 FONTAINE Helise 22962 D21 5907NO 0:55:13 11'44 4866 4879 +13 4885
8 FINAS Celine 8445 D21 5907NO 0:56:23 11'59 5300 4778 -522 5494
9 DUQUENNE Audrey 23885 D20 5907NO 0:56:33 12'01 5115 4764 -351 5027
10 DESSAILLY Aurélie 26339 D35 5909NO 0:59:14 12'36 4281 4548 +267 4366
11 MERCIER Agnès 23079 D21 5907NO 0:59:53 12'44 5372 4499 -873 5275
12 DUFFRENNE Elise 26497 D21 5909NO 1:07:55 14'27 4835 3967 -868 4554
13 GIRARD Melissa 28118 D20 5907NO 1:11:50 15'17 4304 3751 -553 4115
14 VIEQUE Karine 25018 D40 6208NO 1:14:59 15'57 3348 3593 +245 3511
15 GOURLAIN Marguerite-marie 19155 D45 6205NO 1:15:54 16'08 3259 3550 +291 3327
16 ARROQUI Mathilde 23425 D21 5909NO 1:17:03 16'23 3088 3497 +409 3559
17 BOULANGER Isabelle 10639 D55 5907NO 1:24:28 17'58 3099 3190 +91 3211
18 LEFEVRE Lou 30950 D20 5907NO 1:27:11 18'32 3090 2586
19 ARROQUI Anne-sophie 23424 D45 5909NO 1:34:42 20'08 3133 2845 -288 3253
20 DEPERSIN Isabelle 17899 D40 5907NO 1:45:18 22'24 2559 2559 +0 2196
21 ROLIN Charlotte 23947 D35 6208NO 1:46:05 22'34 3500 2540 -960 3500
22 DUBREUCQ Marie 25100 D21 5906NO 1:47:51 22'56 4035 2498 -1537 4035
23 JASKINA Catherine 28714 D50 6203NO 1:52:40 23'58 2591 2391 -200 2629
24 POULAIN Odile 1948 D50 5909NO 1:54:17 24'18 2754 2357 -397 2664
25 DUBREUCQ Perrine 25471 D21 5906NO 2:00:33 25'38 0 2235 2190
26 BAUD Sandrine 27612 D40 6203NO 2:03:35 26'17 2359 2180 -179 2464
27 SALINGUE VINCENT 31238 H40 6203NO 2:04:46 26'32 2159 2073
28 DURIEZ Corinne 27971 D50 6203NO 2:22:49 30'23 1986 1886 -100 2275
29 PHILIPPS Marie Laure 28718 D50 6203NO 2:26:50 31'14 2362 1835 -527 2463
30 JACQUEMART Marina 28528 D21 5909NO 3:13:41 41'12 2331 1391 -940 2331
NOEL Annie 23019 D45 6207NO pm None 3036 0 2927
GERBEAUX Marie-jeanne 22417 D60 6205NO pm None 3325 0 3516